Aérodrome :
LOGIN :

S'inscrire | Disclaimer

   EN    FR    IT 

 










Légende :    VFR   VFR Marginal   IFR   IFR Intensif   IFR Très Intensif
Visi : 
Plafond : 
>= 8 km
>= 3000ft
5 à 8 km
1000 à 3000 ft
1500m à 5 km
500 à 1000 ft
800 à 1500m
200 à 500 ft
< 800m
< 200 ft
Symboles :   Orages  Brouillard  Fortes neiges  Fortes précipitations  Vent > 20 kt
SIGMETs :   Divers  Orages  Givrage  Turbulence  Onde Orograph.  Cendres Volcan.






- Altitude de l'aérodrome : 157 ft
- Code IATA : SXF


EDDB - Berlin Schönefeld

DERNIER METAR :
  • 040350Z 13009KT CAVOK M01/M04 Q0996 NOSIG

METARs EXPIRÉS :
  • 040320Z 13010KT CAVOK M01/M04 Q0997 NOSIG
  • 040250Z 13011KT CAVOK M01/M04 Q0997 NOSIG
  • 040220Z 13012KT CAVOK M02/M04 Q0997 NOSIG
  • 040150Z 13012KT CAVOK M02/M05 Q0997 NOSIG
  • 040120Z 13011KT CAVOK M02/M05 Q0998 NOSIG

TAF TAF EDDB
Valide du 04 à 00h jusqu'au 05 à 00h UTC


032300Z 0400/0424 12010KT 9999 BKN040



MET'MAP, la Météo Aéronautique d'un coup d'oeil ! - Copyright ORBIFLY Décembre 2007 - Disclaimer

ORBIFLY MET'MAP TEAM :

Programmation & Développement : Alexandra Zaïnal
Sur une idée originale de : Baudouin d'Aumeries
Assistance à la programmation : Marc-Olivier Méhu
Soutien technique & logistique : Manuel Goepfert

Contact : metmap@orbifly.com




SOURCES & CREDITS :

   NOAA